Terminal Aerodrome Forecast
Issued by NWS

Home | Current Version | Previous Version | Graphics & Text | Print | Product List | Glossary On
Versions: 1 2 3 4 5 6 7 8 9 10 11 12 13 14 15 16 17 18 19 20
000
FTUS43 KBIS 171700
TAFJMS
TAF
KJMS 171724Z 1718/1818 17004KT P6SM BKN015
     FM180000 13005KT P6SM VCTS BKN070CB
      TEMPO 1800/1803 2SM TSRA BKN050CB
     FM180600 25007KT P6SM BKN070
     FM181500 31013G20KT P6SM SCT060=

USA.gov is the U.S. government's official web portal to all federal, state and local government web resources and services.